To NAV CANADA Home Page Login to a new session Search on AWWS site Feedback and Comments Disclaimer Vers la page française équivalente Tips FAQ What's new on the site To the Forecasts and Observations / NOTAM section To "File a Flight Plan" website Publications and other links Update of the User's profile FIC Telephone Numbers My Weather Data Folder Route Weather Data Regional Weather Data Local Weather Data To the Forecasts and Observations / NOTAM section
Request Generated 05/23/2015 at 13:20:41 UTC . Weather information available at that time is displayed.

METAR/TAF

SUDBURY/ON    

METAR CYSB 231300Z 23008KT 20SM BKN110 07/M00 A3026 RMK AC5 SLP257=
METAR CYSB 231200Z 24009KT 20SM SCT110 04/00 A3026 RMK AC3 SLP260=
METAR CYSB 231100Z 26005KT 20SM FEW090 00/M03 A3026 RMK AC1 SLP262=

TAF CYSB 230745Z 2308/2320 16005KT P6SM SKC
BECMG 2310/2312 20010KT
FM231400 23015G25KT P6SM FEW080 TEMPO 2314/2317 BKN080
RMK NXT FCST BY 231400Z=
Your time UTC time
Weather data provided by Environment Canada and NAV CANADA